sensor_id;sensor_type;location;lat;lon;timestamp;P1;durP1;ratioP1;P2;durP2;ratioP2
46322;SDS011;32044;52.386;13.278;2023-06-26T00:00:20;10.65;;;9.55;;
46322;SDS011;32044;52.386;13.278;2023-06-26T00:02:47;9.57;;;8.27;;
46322;SDS011;32044;52.386;13.278;2023-06-26T00:05:15;8.68;;;7.82;;
46322;SDS011;32044;52.386;13.278;2023-06-26T00:07:43;10.07;;;9.05;;
46322;SDS011;32044;52.386;13.278;2023-06-26T00:10:10;10.13;;;9.10;;
46322;SDS011;32044;52.386;13.278;2023-06-26T00:12:39;11.45;;;9.57;;
46322;SDS011;32044;52.386;13.278;2023-06-26T00:15:07;10.40;;;9.32;;
46322;SDS011;32044;52.386;13.278;2023-06-26T00:17:35;14.98;;;10.23;;
46322;SDS011;32044;52.386;13.278;2023-06-26T00:20:04;13.63;;;9.88;;
46322;SDS011;32044;52.386;13.278;2023-06-26T00:22:32;10.15;;;9.02;;
46322;SDS011;32044;52.386;13.278;2023-06-26T00:25:00;9.63;;;8.73;;
46322;SDS011;32044;52.386;13.278;2023-06-26T00:27:30;10.20;;;8.23;;
46322;SDS011;32044;52.386;13.278;2023-06-26T00:29:58;8.13;;;7.43;;
46322;SDS011;32044;52.386;13.278;2023-06-26T00:32:26;8.38;;;7.57;;
46322;SDS011;32044;52.386;13.278;2023-06-26T00:34:54;8.70;;;7.45;;
46322;SDS011;32044;52.386;13.278;2023-06-26T00:37:21;8.77;;;7.88;;
46322;SDS011;32044;52.386;13.278;2023-06-26T00:39:49;8.70;;;7.80;;
46322;SDS011;32044;52.386;13.278;2023-06-26T00:42:17;8.98;;;8.13;;
46322;SDS011;32044;52.386;13.278;2023-06-26T00:44:44;8.70;;;7.90;;
46322;SDS011;32044;52.386;13.278;2023-06-26T00:47:14;9.65;;;8.75;;
46322;SDS011;32044;52.386;13.278;2023-06-26T00:49:43;12.90;;;9.43;;
46322;SDS011;32044;52.386;13.278;2023-06-26T00:52:11;10.30;;;9.30;;
46322;SDS011;32044;52.386;13.278;2023-06-26T00:54:39;10.70;;;9.70;;
46322;SDS011;32044;52.386;13.278;2023-06-26T00:57:06;8.65;;;7.80;;
46322;SDS011;32044;52.386;13.278;2023-06-26T00:59:34;8.85;;;7.82;;
46322;SDS011;32044;52.386;13.278;2023-06-26T01:02:02;9.10;;;8.23;;
46322;SDS011;32044;52.386;13.278;2023-06-26T01:04:31;11.55;;;8.98;;
46322;SDS011;32044;52.386;13.278;2023-06-26T01:06:59;11.55;;;9.10;;
46322;SDS011;32044;52.386;13.278;2023-06-26T01:09:28;10.07;;;9.07;;
46322;SDS011;32044;52.386;13.278;2023-06-26T01:11:57;11.52;;;10.15;;
46322;SDS011;32044;52.386;13.278;2023-06-26T01:14:24;12.63;;;9.95;;
46322;SDS011;32044;52.386;13.278;2023-06-26T01:16:52;11.40;;;9.30;;
46322;SDS011;32044;52.386;13.278;2023-06-26T01:19:24;10.23;;;8.68;;
46322;SDS011;32044;52.386;13.278;2023-06-26T01:21:58;14.30;;;9.50;;
46322;SDS011;32044;52.386;13.278;2023-06-26T01:24:31;10.40;;;9.35;;
46322;SDS011;32044;52.386;13.278;2023-06-26T01:27:01;9.75;;;8.77;;
46322;SDS011;32044;52.386;13.278;2023-06-26T01:29:30;10.35;;;9.18;;
46322;SDS011;32044;52.386;13.278;2023-06-26T01:31:58;12.63;;;11.38;;
46322;SDS011;32044;52.386;13.278;2023-06-26T01:34:26;14.35;;;12.85;;
46322;SDS011;32044;52.386;13.278;2023-06-26T01:36:54;13.07;;;11.70;;
46322;SDS011;32044;52.386;13.278;2023-06-26T01:39:21;15.02;;;12.15;;
46322;SDS011;32044;52.386;13.278;2023-06-26T01:41:49;15.63;;;13.32;;
46322;SDS011;32044;52.386;13.278;2023-06-26T01:44:21;15.25;;;13.65;;
46322;SDS011;32044;52.386;13.278;2023-06-26T01:46:58;15.65;;;14.05;;
46322;SDS011;32044;52.386;13.278;2023-06-26T01:49:37;17.38;;;14.80;;
46322;SDS011;32044;52.386;13.278;2023-06-26T01:52:09;13.18;;;11.88;;
46322;SDS011;32044;52.386;13.278;2023-06-26T01:54:42;11.73;;;10.57;;
46322;SDS011;32044;52.386;13.278;2023-06-26T01:57:15;12.75;;;11.45;;
46322;SDS011;32044;52.386;13.278;2023-06-26T01:59:46;12.63;;;11.27;;
46322;SDS011;32044;52.386;13.278;2023-06-26T02:02:14;13.45;;;11.57;;
46322;SDS011;32044;52.386;13.278;2023-06-26T02:04:42;12.23;;;11.00;;
46322;SDS011;32044;52.386;13.278;2023-06-26T02:07:09;10.25;;;9.25;;
46322;SDS011;32044;52.386;13.278;2023-06-26T02:09:37;10.02;;;8.98;;
46322;SDS011;32044;52.386;13.278;2023-06-26T02:12:05;15.15;;;11.60;;
46322;SDS011;32044;52.386;13.278;2023-06-26T02:14:33;13.38;;;11.23;;
46322;SDS011;32044;52.386;13.278;2023-06-26T02:17:02;15.10;;;12.35;;
46322;SDS011;32044;52.386;13.278;2023-06-26T02:19:30;12.80;;;11.48;;
46322;SDS011;32044;52.386;13.278;2023-06-26T02:21:57;15.27;;;12.43;;
46322;SDS011;32044;52.386;13.278;2023-06-26T02:24:25;14.40;;;12.90;;
46322;SDS011;32044;52.386;13.278;2023-06-26T02:26:56;13.80;;;12.32;;
46322;SDS011;32044;52.386;13.278;2023-06-26T02:29:24;13.90;;;10.95;;
46322;SDS011;32044;52.386;13.278;2023-06-26T02:31:51;12.07;;;10.88;;
46322;SDS011;32044;52.386;13.278;2023-06-26T02:34:20;13.35;;;12.02;;
46322;SDS011;32044;52.386;13.278;2023-06-26T02:36:48;13.23;;;11.45;;
46322;SDS011;32044;52.386;13.278;2023-06-26T02:39:15;19.75;;;12.10;;
46322;SDS011;32044;52.386;13.278;2023-06-26T02:41:43;12.80;;;11.40;;
46322;SDS011;32044;52.386;13.278;2023-06-26T02:44:10;13.07;;;11.43;;
46322;SDS011;32044;52.386;13.278;2023-06-26T02:46:38;12.05;;;10.68;;
46322;SDS011;32044;52.386;13.278;2023-06-26T02:49:06;12.48;;;11.07;;
46322;SDS011;32044;52.386;13.278;2023-06-26T02:51:35;13.45;;;12.05;;
46322;SDS011;32044;52.386;13.278;2023-06-26T02:54:03;14.48;;;12.20;;
46322;SDS011;32044;52.386;13.278;2023-06-26T02:56:31;15.60;;;12.93;;
46322;SDS011;32044;52.386;13.278;2023-06-26T02:59:00;14.23;;;12.73;;
46322;SDS011;32044;52.386;13.278;2023-06-26T03:01:28;15.00;;;12.68;;
46322;SDS011;32044;52.386;13.278;2023-06-26T03:03:55;16.52;;;14.27;;
46322;SDS011;32044;52.386;13.278;2023-06-26T03:06:23;15.52;;;13.35;;
46322;SDS011;32044;52.386;13.278;2023-06-26T03:08:52;14.73;;;12.85;;
46322;SDS011;32044;52.386;13.278;2023-06-26T03:11:20;20.05;;;13.27;;
46322;SDS011;32044;52.386;13.278;2023-06-26T03:13:48;13.20;;;11.75;;
46322;SDS011;32044;52.386;13.278;2023-06-26T03:16:16;12.82;;;11.20;;
46322;SDS011;32044;52.386;13.278;2023-06-26T03:18:43;11.55;;;10.45;;
46322;SDS011;32044;52.386;13.278;2023-06-26T03:21:11;13.60;;;11.90;;
46322;SDS011;32044;52.386;13.278;2023-06-26T03:23:38;14.07;;;12.60;;
46322;SDS011;32044;52.386;13.278;2023-06-26T03:26:08;14.25;;;12.80;;
46322;SDS011;32044;52.386;13.278;2023-06-26T03:28:35;13.30;;;11.50;;
46322;SDS011;32044;52.386;13.278;2023-06-26T03:31:03;13.60;;;12.20;;
46322;SDS011;32044;52.386;13.278;2023-06-26T03:33:30;14.68;;;13.18;;
46322;SDS011;32044;52.386;13.278;2023-06-26T03:35:58;13.20;;;11.90;;
46322;SDS011;32044;52.386;13.278;2023-06-26T03:38:26;14.75;;;12.40;;
46322;SDS011;32044;52.386;13.278;2023-06-26T03:40:53;12.38;;;10.73;;
46322;SDS011;32044;52.386;13.278;2023-06-26T03:43:22;14.10;;;12.27;;
46322;SDS011;32044;52.386;13.278;2023-06-26T03:45:50;16.90;;;12.82;;
46322;SDS011;32044;52.386;13.278;2023-06-26T03:48:18;12.90;;;11.60;;
46322;SDS011;32044;52.386;13.278;2023-06-26T03:50:45;14.25;;;12.02;;
46322;SDS011;32044;52.386;13.278;2023-06-26T03:53:13;12.95;;;11.43;;
46322;SDS011;32044;52.386;13.278;2023-06-26T03:55:40;15.20;;;13.65;;
46322;SDS011;32044;52.386;13.278;2023-06-26T03:58:08;14.35;;;12.90;;
46322;SDS011;32044;52.386;13.278;2023-06-26T04:00:37;15.18;;;13.57;;
46322;SDS011;32044;52.386;13.278;2023-06-26T04:03:05;13.85;;;12.45;;
46322;SDS011;32044;52.386;13.278;2023-06-26T04:05:34;19.33;;;15.07;;
46322;SDS011;32044;52.386;13.278;2023-06-26T04:08:02;17.73;;;14.43;;
46322;SDS011;32044;52.386;13.278;2023-06-26T04:10:30;16.13;;;14.45;;
46322;SDS011;32044;52.386;13.278;2023-06-26T04:13:00;18.40;;;14.43;;
46322;SDS011;32044;52.386;13.278;2023-06-26T04:15:27;14.30;;;12.90;;
46322;SDS011;32044;52.386;13.278;2023-06-26T04:17:56;15.70;;;14.10;;
46322;SDS011;32044;52.386;13.278;2023-06-26T04:20:24;18.80;;;14.60;;
46322;SDS011;32044;52.386;13.278;2023-06-26T04:22:51;16.50;;;13.30;;
46322;SDS011;32044;52.386;13.278;2023-06-26T04:25:19;16.33;;;14.63;;
46322;SDS011;32044;52.386;13.278;2023-06-26T04:27:47;19.15;;;15.55;;
46322;SDS011;32044;52.386;13.278;2023-06-26T04:30:15;17.02;;;15.25;;
46322;SDS011;32044;52.386;13.278;2023-06-26T04:32:43;15.73;;;13.88;;
46322;SDS011;32044;52.386;13.278;2023-06-26T04:35:12;19.63;;;14.80;;
46322;SDS011;32044;52.386;13.278;2023-06-26T04:37:39;18.67;;;15.20;;
46322;SDS011;32044;52.386;13.278;2023-06-26T04:40:07;15.68;;;13.98;;
46322;SDS011;32044;52.386;13.278;2023-06-26T04:42:36;16.52;;;14.15;;
46322;SDS011;32044;52.386;13.278;2023-06-26T04:45:04;16.02;;;14.43;;
46322;SDS011;32044;52.386;13.278;2023-06-26T04:47:32;16.73;;;13.57;;
46322;SDS011;32044;52.386;13.278;2023-06-26T04:50:00;14.60;;;12.55;;
46322;SDS011;32044;52.386;13.278;2023-06-26T04:52:29;12.60;;;11.30;;
46322;SDS011;32044;52.386;13.278;2023-06-26T04:54:57;14.02;;;12.30;;
46322;SDS011;32044;52.386;13.278;2023-06-26T04:57:24;11.40;;;10.32;;
46322;SDS011;32044;52.386;13.278;2023-06-26T04:59:52;16.63;;;14.43;;
46322;SDS011;32044;52.386;13.278;2023-06-26T05:02:20;16.33;;;13.15;;
46322;SDS011;32044;52.386;13.278;2023-06-26T05:04:47;16.63;;;13.18;;
46322;SDS011;32044;52.386;13.278;2023-06-26T05:07:15;16.65;;;14.85;;
46322;SDS011;32044;52.386;13.278;2023-06-26T05:09:44;16.30;;;14.60;;
46322;SDS011;32044;52.386;13.278;2023-06-26T05:12:11;18.90;;;14.88;;
46322;SDS011;32044;52.386;13.278;2023-06-26T05:14:39;16.27;;;14.55;;
46322;SDS011;32044;52.386;13.278;2023-06-26T05:17:07;20.80;;;14.18;;
46322;SDS011;32044;52.386;13.278;2023-06-26T05:19:34;23.98;;;14.48;;
46322;SDS011;32044;52.386;13.278;2023-06-26T05:22:02;15.13;;;12.88;;
46322;SDS011;32044;52.386;13.278;2023-06-26T05:24:33;14.00;;;12.43;;
46322;SDS011;32044;52.386;13.278;2023-06-26T05:27:03;14.57;;;12.52;;
46322;SDS011;32044;52.386;13.278;2023-06-26T05:29:31;16.38;;;13.15;;
46322;SDS011;32044;52.386;13.278;2023-06-26T05:32:04;16.70;;;14.90;;
46322;SDS011;32044;52.386;13.278;2023-06-26T05:34:32;16.98;;;14.75;;
46322;SDS011;32044;52.386;13.278;2023-06-26T05:37:00;17.85;;;15.50;;
46322;SDS011;32044;52.386;13.278;2023-06-26T05:39:29;18.63;;;15.07;;
46322;SDS011;32044;52.386;13.278;2023-06-26T05:41:57;19.05;;;14.32;;
46322;SDS011;32044;52.386;13.278;2023-06-26T05:44:26;16.30;;;14.38;;
46322;SDS011;32044;52.386;13.278;2023-06-26T05:46:53;15.60;;;14.07;;
46322;SDS011;32044;52.386;13.278;2023-06-26T05:49:21;15.10;;;12.80;;
46322;SDS011;32044;52.386;13.278;2023-06-26T05:51:49;15.95;;;13.52;;
46322;SDS011;32044;52.386;13.278;2023-06-26T05:54:17;14.25;;;12.75;;
46322;SDS011;32044;52.386;13.278;2023-06-26T05:56:45;16.23;;;12.07;;
46322;SDS011;32044;52.386;13.278;2023-06-26T05:59:13;13.68;;;11.45;;
46322;SDS011;32044;52.386;13.278;2023-06-26T06:01:43;14.88;;;11.52;;
46322;SDS011;32044;52.386;13.278;2023-06-26T06:04:11;12.65;;;11.40;;
46322;SDS011;32044;52.386;13.278;2023-06-26T06:06:38;13.82;;;11.55;;
46322;SDS011;32044;52.386;13.278;2023-06-26T06:09:06;14.25;;;11.95;;
46322;SDS011;32044;52.386;13.278;2023-06-26T06:11:34;12.20;;;10.82;;
46322;SDS011;32044;52.386;13.278;2023-06-26T06:14:01;12.50;;;11.02;;
46322;SDS011;32044;52.386;13.278;2023-06-26T06:16:29;16.67;;;10.95;;
46322;SDS011;32044;52.386;13.278;2023-06-26T06:18:58;12.40;;;11.10;;
46322;SDS011;32044;52.386;13.278;2023-06-26T06:21:25;12.18;;;10.60;;
46322;SDS011;32044;52.386;13.278;2023-06-26T06:23:53;10.48;;;9.48;;
46322;SDS011;32044;52.386;13.278;2023-06-26T06:26:20;11.27;;;9.52;;
46322;SDS011;32044;52.386;13.278;2023-06-26T06:28:48;14.02;;;10.32;;
46322;SDS011;32044;52.386;13.278;2023-06-26T06:31:15;11.38;;;9.82;;
46322;SDS011;32044;52.386;13.278;2023-06-26T06:33:43;12.80;;;9.68;;
46322;SDS011;32044;52.386;13.278;2023-06-26T06:36:12;10.68;;;9.25;;
46322;SDS011;32044;52.386;13.278;2023-06-26T06:38:42;11.05;;;9.05;;
46322;SDS011;32044;52.386;13.278;2023-06-26T06:41:10;10.07;;;8.95;;
46322;SDS011;32044;52.386;13.278;2023-06-26T06:43:38;12.13;;;8.40;;
46322;SDS011;32044;52.386;13.278;2023-06-26T06:46:06;9.68;;;8.73;;
46322;SDS011;32044;52.386;13.278;2023-06-26T06:48:33;9.57;;;8.57;;
46322;SDS011;32044;52.386;13.278;2023-06-26T06:51:01;11.90;;;7.80;;
46322;SDS011;32044;52.386;13.278;2023-06-26T06:53:31;8.32;;;7.53;;
46322;SDS011;32044;52.386;13.278;2023-06-26T06:55:58;13.02;;;8.98;;
46322;SDS011;32044;52.386;13.278;2023-06-26T06:58:26;11.70;;;7.50;;
46322;SDS011;32044;52.386;13.278;2023-06-26T07:00:54;9.93;;;7.65;;
46322;SDS011;32044;52.386;13.278;2023-06-26T07:03:22;10.23;;;7.70;;
46322;SDS011;32044;52.386;13.278;2023-06-26T07:05:49;8.25;;;7.20;;
46322;SDS011;32044;52.386;13.278;2023-06-26T07:08:17;9.13;;;8.23;;
46322;SDS011;32044;52.386;13.278;2023-06-26T07:10:46;11.80;;;9.00;;
46322;SDS011;32044;52.386;13.278;2023-06-26T07:13:14;11.93;;;9.27;;
46322;SDS011;32044;52.386;13.278;2023-06-26T07:15:41;8.90;;;7.75;;
46322;SDS011;32044;52.386;13.278;2023-06-26T07:18:09;9.73;;;8.30;;
46322;SDS011;32044;52.386;13.278;2023-06-26T07:20:37;9.07;;;8.18;;
46322;SDS011;32044;52.386;13.278;2023-06-26T07:23:04;10.27;;;7.20;;
46322;SDS011;32044;52.386;13.278;2023-06-26T07:25:32;10.23;;;9.02;;
46322;SDS011;32044;52.386;13.278;2023-06-26T07:28:01;11.65;;;7.95;;
46322;SDS011;32044;52.386;13.278;2023-06-26T07:30:29;10.25;;;9.10;;
46322;SDS011;32044;52.386;13.278;2023-06-26T07:32:56;13.90;;;8.10;;
46322;SDS011;32044;52.386;13.278;2023-06-26T07:35:24;9.68;;;8.00;;
46322;SDS011;32044;52.386;13.278;2023-06-26T07:37:53;9.43;;;7.40;;
46322;SDS011;32044;52.386;13.278;2023-06-26T07:40:21;8.20;;;7.40;;
46322;SDS011;32044;52.386;13.278;2023-06-26T07:42:49;8.43;;;7.63;;
46322;SDS011;32044;52.386;13.278;2023-06-26T07:45:17;12.38;;;7.95;;
46322;SDS011;32044;52.386;13.278;2023-06-26T07:47:46;9.32;;;8.00;;
46322;SDS011;32044;52.386;13.278;2023-06-26T07:50:13;8.95;;;7.18;;
46322;SDS011;32044;52.386;13.278;2023-06-26T07:52:45;10.70;;;7.75;;
46322;SDS011;32044;52.386;13.278;2023-06-26T07:55:13;8.00;;;7.18;;
46322;SDS011;32044;52.386;13.278;2023-06-26T07:57:40;13.95;;;7.85;;
46322;SDS011;32044;52.386;13.278;2023-06-26T08:00:08;8.43;;;7.57;;
46322;SDS011;32044;52.386;13.278;2023-06-26T08:02:38;8.02;;;7.28;;
46322;SDS011;32044;52.386;13.278;2023-06-26T08:05:06;8.23;;;7.43;;
46322;SDS011;32044;52.386;13.278;2023-06-26T08:07:34;7.72;;;6.88;;
46322;SDS011;32044;52.386;13.278;2023-06-26T08:10:02;7.78;;;6.57;;
46322;SDS011;32044;52.386;13.278;2023-06-26T08:12:30;7.00;;;6.35;;
46322;SDS011;32044;52.386;13.278;2023-06-26T08:14:57;8.48;;;6.53;;
46322;SDS011;32044;52.386;13.278;2023-06-26T08:17:25;7.50;;;6.15;;
46322;SDS011;32044;52.386;13.278;2023-06-26T08:19:57;7.03;;;6.32;;
46322;SDS011;32044;52.386;13.278;2023-06-26T08:22:24;6.85;;;6.03;;
46322;SDS011;32044;52.386;13.278;2023-06-26T08:24:52;7.35;;;6.65;;
46322;SDS011;32044;52.386;13.278;2023-06-26T08:27:19;6.63;;;6.03;;
46322;SDS011;32044;52.386;13.278;2023-06-26T08:29:47;6.75;;;5.82;;
46322;SDS011;32044;52.386;13.278;2023-06-26T08:32:14;6.38;;;5.50;;
46322;SDS011;32044;52.386;13.278;2023-06-26T08:34:42;5.45;;;4.93;;
46322;SDS011;32044;52.386;13.278;2023-06-26T08:37:11;8.95;;;5.18;;
46322;SDS011;32044;52.386;13.278;2023-06-26T08:39:38;9.70;;;5.40;;
46322;SDS011;32044;52.386;13.278;2023-06-26T08:42:06;5.88;;;5.28;;
46322;SDS011;32044;52.386;13.278;2023-06-26T08:44:34;6.75;;;5.53;;
46322;SDS011;32044;52.386;13.278;2023-06-26T08:47:09;5.57;;;4.70;;
46322;SDS011;32044;52.386;13.278;2023-06-26T08:49:42;5.85;;;5.35;;
46322;SDS011;32044;52.386;13.278;2023-06-26T08:52:15;5.35;;;4.70;;
46322;SDS011;32044;52.386;13.278;2023-06-26T08:54:45;5.38;;;4.88;;
46322;SDS011;32044;52.386;13.278;2023-06-26T08:57:14;6.10;;;5.07;;
46322;SDS011;32044;52.386;13.278;2023-06-26T08:59:46;4.88;;;4.47;;
46322;SDS011;32044;52.386;13.278;2023-06-26T09:02:14;5.60;;;4.43;;
46322;SDS011;32044;52.386;13.278;2023-06-26T09:04:42;5.05;;;4.50;;
46322;SDS011;32044;52.386;13.278;2023-06-26T09:07:09;4.60;;;4.20;;
46322;SDS011;32044;52.386;13.278;2023-06-26T09:09:39;11.32;;;5.00;;
46322;SDS011;32044;52.386;13.278;2023-06-26T09:12:07;5.68;;;4.30;;
46322;SDS011;32044;52.386;13.278;2023-06-26T09:14:36;7.00;;;3.80;;
46322;SDS011;32044;52.386;13.278;2023-06-26T09:17:04;4.65;;;4.20;;
46322;SDS011;32044;52.386;13.278;2023-06-26T09:19:32;7.20;;;4.60;;
46322;SDS011;32044;52.386;13.278;2023-06-26T09:22:02;4.68;;;4.18;;
46322;SDS011;32044;52.386;13.278;2023-06-26T09:24:30;4.85;;;4.35;;
46322;SDS011;32044;52.386;13.278;2023-06-26T09:27:00;4.78;;;4.03;;
46322;SDS011;32044;52.386;13.278;2023-06-26T09:29:28;5.55;;;3.90;;
46322;SDS011;32044;52.386;13.278;2023-06-26T09:31:56;4.10;;;3.70;;
46322;SDS011;32044;52.386;13.278;2023-06-26T09:34:29;6.13;;;4.38;;
46322;SDS011;32044;52.386;13.278;2023-06-26T09:36:57;5.18;;;4.40;;
46322;SDS011;32044;52.386;13.278;2023-06-26T09:39:25;4.78;;;4.22;;
46322;SDS011;32044;52.386;13.278;2023-06-26T09:41:53;3.97;;;3.67;;
46322;SDS011;32044;52.386;13.278;2023-06-26T09:44:24;4.72;;;4.30;;
46322;SDS011;32044;52.386;13.278;2023-06-26T09:46:51;6.85;;;4.25;;
46322;SDS011;32044;52.386;13.278;2023-06-26T09:49:23;4.80;;;4.35;;
46322;SDS011;32044;52.386;13.278;2023-06-26T09:51:51;6.43;;;3.85;;
46322;SDS011;32044;52.386;13.278;2023-06-26T09:54:19;4.72;;;4.00;;
46322;SDS011;32044;52.386;13.278;2023-06-26T09:56:48;4.85;;;4.45;;
46322;SDS011;32044;52.386;13.278;2023-06-26T09:59:16;4.63;;;4.22;;
46322;SDS011;32044;52.386;13.278;2023-06-26T10:01:46;4.38;;;3.97;;
46322;SDS011;32044;52.386;13.278;2023-06-26T10:04:14;5.22;;;4.07;;
46322;SDS011;32044;52.386;13.278;2023-06-26T10:06:43;7.57;;;5.43;;
46322;SDS011;32044;52.386;13.278;2023-06-26T10:09:14;5.22;;;4.28;;
46322;SDS011;32044;52.386;13.278;2023-06-26T10:11:46;4.90;;;4.43;;
46322;SDS011;32044;52.386;13.278;2023-06-26T10:14:14;4.72;;;4.22;;
46322;SDS011;32044;52.386;13.278;2023-06-26T10:16:44;5.80;;;4.05;;
46322;SDS011;32044;52.386;13.278;2023-06-26T10:19:13;4.20;;;3.80;;
46322;SDS011;32044;52.386;13.278;2023-06-26T10:21:42;4.18;;;3.75;;
46322;SDS011;32044;52.386;13.278;2023-06-26T10:24:10;3.95;;;3.58;;
46322;SDS011;32044;52.386;13.278;2023-06-26T10:26:41;5.47;;;3.67;;
46322;SDS011;32044;52.386;13.278;2023-06-26T10:29:10;5.63;;;4.35;;
46322;SDS011;32044;52.386;13.278;2023-06-26T10:31:39;4.18;;;3.75;;
46322;SDS011;32044;52.386;13.278;2023-06-26T10:34:09;4.88;;;4.15;;
46322;SDS011;32044;52.386;13.278;2023-06-26T10:36:37;4.93;;;4.10;;
46322;SDS011;32044;52.386;13.278;2023-06-26T10:39:07;7.65;;;4.15;;
46322;SDS011;32044;52.386;13.278;2023-06-26T10:41:38;7.18;;;4.55;;
46322;SDS011;32044;52.386;13.278;2023-06-26T10:46:54;4.50;;;4.10;;
46322;SDS011;32044;52.386;13.278;2023-06-26T10:49:26;4.70;;;4.30;;
46322;SDS011;32044;52.386;13.278;2023-06-26T10:54:27;4.15;;;3.75;;
46322;SDS011;32044;52.386;13.278;2023-06-26T10:59:24;8.40;;;3.88;;
46322;SDS011;32044;52.386;13.278;2023-06-26T11:01:56;4.10;;;3.72;;
46322;SDS011;32044;52.386;13.278;2023-06-26T11:04:38;4.07;;;3.78;;
46322;SDS011;32044;52.386;13.278;2023-06-26T11:07:16;4.18;;;3.78;;
46322;SDS011;32044;52.386;13.278;2023-06-26T11:09:56;5.20;;;4.13;;
46322;SDS011;32044;52.386;13.278;2023-06-26T11:12:37;4.43;;;4.03;;
46322;SDS011;32044;52.386;13.278;2023-06-26T11:15:09;4.63;;;3.88;;
46322;SDS011;32044;52.386;13.278;2023-06-26T11:17:37;4.85;;;4.20;;
46322;SDS011;32044;52.386;13.278;2023-06-26T11:20:07;4.40;;;4.00;;
46322;SDS011;32044;52.386;13.278;2023-06-26T11:22:36;6.57;;;4.40;;
46322;SDS011;32044;52.386;13.278;2023-06-26T11:25:05;6.93;;;3.95;;
46322;SDS011;32044;52.386;13.278;2023-06-26T11:27:37;5.07;;;4.20;;
46322;SDS011;32044;52.386;13.278;2023-06-26T11:30:06;4.60;;;4.20;;
46322;SDS011;32044;52.386;13.278;2023-06-26T11:32:34;5.53;;;4.78;;
46322;SDS011;32044;52.386;13.278;2023-06-26T11:35:03;4.53;;;4.13;;
46322;SDS011;32044;52.386;13.278;2023-06-26T11:37:34;4.82;;;4.43;;
46322;SDS011;32044;52.386;13.278;2023-06-26T11:40:15;4.55;;;4.15;;
46322;SDS011;32044;52.386;13.278;2023-06-26T11:42:44;4.45;;;4.05;;
46322;SDS011;32044;52.386;13.278;2023-06-26T11:45:12;4.50;;;4.10;;
46322;SDS011;32044;52.386;13.278;2023-06-26T11:47:40;4.43;;;4.10;;
46322;SDS011;32044;52.386;13.278;2023-06-26T11:50:14;5.25;;;4.57;;
46322;SDS011;32044;52.386;13.278;2023-06-26T11:52:43;5.95;;;4.72;;
46322;SDS011;32044;52.386;13.278;2023-06-26T11:55:11;8.20;;;4.80;;
46322;SDS011;32044;52.386;13.278;2023-06-26T11:57:38;5.10;;;4.55;;
46322;SDS011;32044;52.386;13.278;2023-06-26T12:00:10;5.75;;;4.30;;
46322;SDS011;32044;52.386;13.278;2023-06-26T12:02:38;6.53;;;5.53;;
46322;SDS011;32044;52.386;13.278;2023-06-26T12:05:06;5.15;;;4.65;;
46322;SDS011;32044;52.386;13.278;2023-06-26T12:07:35;4.82;;;4.43;;
46322;SDS011;32044;52.386;13.278;2023-06-26T12:10:05;5.78;;;4.53;;
46322;SDS011;32044;52.386;13.278;2023-06-26T12:12:33;5.40;;;4.90;;
46322;SDS011;32044;52.386;13.278;2023-06-26T12:15:00;8.25;;;4.88;;
46322;SDS011;32044;52.386;13.278;2023-06-26T12:17:28;5.30;;;4.80;;
46322;SDS011;32044;52.386;13.278;2023-06-26T12:19:56;5.85;;;5.35;;
46322;SDS011;32044;52.386;13.278;2023-06-26T12:22:24;5.28;;;4.78;;
46322;SDS011;32044;52.386;13.278;2023-06-26T12:24:52;5.72;;;5.22;;
46322;SDS011;32044;52.386;13.278;2023-06-26T12:27:25;7.35;;;5.55;;
46322;SDS011;32044;52.386;13.278;2023-06-26T12:29:53;5.63;;;5.07;;
46322;SDS011;32044;52.386;13.278;2023-06-26T12:32:22;6.65;;;5.03;;
46322;SDS011;32044;52.386;13.278;2023-06-26T12:34:50;5.25;;;4.75;;
46322;SDS011;32044;52.386;13.278;2023-06-26T12:37:19;5.63;;;5.13;;
46322;SDS011;32044;52.386;13.278;2023-06-26T12:39:47;6.80;;;4.90;;
46322;SDS011;32044;52.386;13.278;2023-06-26T12:42:16;6.22;;;5.63;;
46322;SDS011;32044;52.386;13.278;2023-06-26T12:44:46;5.88;;;5.22;;
46322;SDS011;32044;52.386;13.278;2023-06-26T12:47:14;9.68;;;5.20;;
46322;SDS011;32044;52.386;13.278;2023-06-26T12:49:43;6.07;;;5.47;;
46322;SDS011;32044;52.386;13.278;2023-06-26T12:52:13;5.88;;;4.78;;
46322;SDS011;32044;52.386;13.278;2023-06-26T12:54:42;5.78;;;5.20;;
46322;SDS011;32044;52.386;13.278;2023-06-26T12:57:11;6.25;;;5.65;;
46322;SDS011;32044;52.386;13.278;2023-06-26T12:59:40;5.65;;;5.15;;
46322;SDS011;32044;52.386;13.278;2023-06-26T13:02:09;8.25;;;5.60;;
46322;SDS011;32044;52.386;13.278;2023-06-26T13:04:39;5.65;;;5.15;;
46322;SDS011;32044;52.386;13.278;2023-06-26T13:07:07;5.88;;;5.28;;
46322;SDS011;32044;52.386;13.278;2023-06-26T13:09:35;6.22;;;5.38;;
46322;SDS011;32044;52.386;13.278;2023-06-26T13:12:03;6.93;;;5.25;;
46322;SDS011;32044;52.386;13.278;2023-06-26T13:14:34;8.32;;;5.65;;
46322;SDS011;32044;52.386;13.278;2023-06-26T13:17:01;6.82;;;5.72;;
46322;SDS011;32044;52.386;13.278;2023-06-26T13:19:33;6.38;;;5.22;;
46322;SDS011;32044;52.386;13.278;2023-06-26T13:22:00;6.82;;;5.90;;
46322;SDS011;32044;52.386;13.278;2023-06-26T13:24:28;9.40;;;5.68;;
46322;SDS011;32044;52.386;13.278;2023-06-26T13:26:56;8.13;;;5.28;;
46322;SDS011;32044;52.386;13.278;2023-06-26T13:29:23;6.03;;;5.20;;
46322;SDS011;32044;52.386;13.278;2023-06-26T13:31:51;6.32;;;5.72;;
46322;SDS011;32044;52.386;13.278;2023-06-26T13:34:21;6.18;;;5.57;;
46322;SDS011;32044;52.386;13.278;2023-06-26T13:36:51;6.18;;;5.68;;
46322;SDS011;32044;52.386;13.278;2023-06-26T13:39:18;6.82;;;5.15;;
46322;SDS011;32044;52.386;13.278;2023-06-26T13:41:46;7.47;;;5.05;;
46322;SDS011;32044;52.386;13.278;2023-06-26T13:44:13;6.15;;;5.43;;
46322;SDS011;32044;52.386;13.278;2023-06-26T13:47:01;7.13;;;5.72;;
46322;SDS011;32044;52.386;13.278;2023-06-26T13:49:29;5.93;;;5.43;;
46322;SDS011;32044;52.386;13.278;2023-06-26T13:51:58;6.05;;;5.43;;
46322;SDS011;32044;52.386;13.278;2023-06-26T13:54:25;6.45;;;5.30;;
46322;SDS011;32044;52.386;13.278;2023-06-26T13:56:54;7.20;;;5.38;;
46322;SDS011;32044;52.386;13.278;2023-06-26T13:59:24;6.40;;;5.13;;
46322;SDS011;32044;52.386;13.278;2023-06-26T14:01:52;7.60;;;5.43;;
46322;SDS011;32044;52.386;13.278;2023-06-26T14:04:19;5.53;;;5.03;;
46322;SDS011;32044;52.386;13.278;2023-06-26T14:06:48;7.22;;;5.93;;
46322;SDS011;32044;52.386;13.278;2023-06-26T14:09:17;8.40;;;5.82;;
46322;SDS011;32044;52.386;13.278;2023-06-26T14:11:45;6.43;;;5.32;;
46322;SDS011;32044;52.386;13.278;2023-06-26T14:14:12;6.38;;;5.40;;
46322;SDS011;32044;52.386;13.278;2023-06-26T14:16:40;6.43;;;5.75;;
46322;SDS011;32044;52.386;13.278;2023-06-26T14:19:07;32.55;;;7.00;;
46322;SDS011;32044;52.386;13.278;2023-06-26T14:21:41;26.55;;;6.18;;
46322;SDS011;32044;52.386;13.278;2023-06-26T14:24:09;44.65;;;8.07;;
46322;SDS011;32044;52.386;13.278;2023-06-26T14:26:38;14.90;;;6.63;;
46322;SDS011;32044;52.386;13.278;2023-06-26T14:29:05;10.70;;;7.47;;
46322;SDS011;32044;52.386;13.278;2023-06-26T14:31:33;11.55;;;7.88;;
46322;SDS011;32044;52.386;13.278;2023-06-26T14:34:01;11.73;;;8.55;;
46322;SDS011;32044;52.386;13.278;2023-06-26T14:36:29;16.00;;;10.38;;
46322;SDS011;32044;52.386;13.278;2023-06-26T14:38:58;23.17;;;12.13;;